Basalt, Colorado
Current Conditions -  °F | °C
As of 10:17 PM on Sunday 19 Oct 2014 (Local Time) from K5SM Reporting Station
Scattered Clouds Scattered Clouds  
Wind Chill: 45°   Ceiling: Unl
Heat Index: 45°   Visibility: 10mi
Dew Point: 32°   Wind: 0mph
Humidity: 61%   Direction: NA
Pressure: 30.42"   Gusts: NA
Location:  39.37°N, 107.03°W
Report Text: K5SM 200417Z AUTO 00000KT 10SM SCT110 07/00 A3042 RMK AO2
Loading
Personal Weather Stations






























Interactive Weather Map
Tropical Storm Tracking
New forecast layout! Learn more

10-Day Weather Forecast

Advertisements
Track Severe Weather on mobile